createdAt,value
2022-12-09T00:55:31.297Z,63.92
2022-12-09T01:00:34.592Z,64.27
2022-12-09T01:05:37.398Z,64.42
2022-12-09T01:10:43.506Z,64.85
2022-12-09T01:15:46.749Z,65.12
2022-12-09T01:20:57.703Z,65.31
2022-12-09T01:26:04.314Z,65.75
2022-12-09T01:31:08.783Z,66.14
2022-12-09T01:36:15.727Z,66.45
2022-12-09T01:41:20.850Z,66.44
2022-12-09T01:46:23.690Z,66.79
2022-12-09T01:51:26.776Z,67.04
2022-12-09T01:56:33.847Z,67.19
2022-12-09T02:01:38.869Z,67.40
2022-12-09T02:06:42.050Z,67.40
2022-12-09T02:12:03.639Z,67.57
2022-12-09T02:17:22.272Z,68.05
2022-12-09T02:22:35.586Z,68.19
2022-12-09T02:27:48.609Z,68.41
2022-12-09T02:33:22.895Z,68.80
2022-12-09T02:38:31.247Z,68.75
2022-12-09T02:43:38.544Z,68.97
2022-12-09T02:48:44.876Z,69.27
2022-12-09T02:53:54.358Z,69.13
2022-12-09T02:58:57.522Z,69.74
2022-12-09T03:04:04.353Z,69.81
2022-12-09T03:09:12.026Z,69.67
2022-12-09T03:14:20.310Z,69.82
2022-12-09T03:19:29.159Z,70.10
2022-12-09T03:24:38.996Z,70.24
2022-12-09T03:29:46.853Z,70.45
2022-12-09T03:34:56.455Z,70.33
2022-12-09T03:40:02.240Z,70.45
2022-12-09T03:45:09.291Z,70.46
2022-12-09T03:50:13.320Z,70.64
2022-12-09T03:55:24.956Z,70.79
2022-12-09T04:00:28.291Z,70.81
2022-12-09T04:05:31.321Z,71.05
2022-12-09T04:10:35.598Z,71.13
2022-12-09T04:15:38.412Z,71.65
2022-12-09T04:20:41.927Z,71.67
2022-12-09T04:25:46.214Z,71.17
2022-12-09T04:30:49.179Z,70.66
2022-12-09T04:35:52.126Z,69.97
2022-12-09T04:40:56.287Z,69.88
2022-12-09T04:46:01.862Z,69.64
2022-12-09T04:51:05.283Z,69.63
2022-12-09T04:56:13.905Z,69.47
2022-12-09T05:01:18.615Z,69.34
2022-12-09T05:06:23.872Z,69.41
2022-12-09T05:11:28.294Z,69.40
2022-12-09T05:16:31.775Z,69.19
2022-12-09T05:21:34.594Z,69.15
2022-12-09T05:26:39.472Z,69.14
2022-12-09T05:31:42.570Z,69.04
2022-12-09T05:36:46.114Z,68.99
2022-12-09T05:41:50.629Z,69.04
2022-12-09T05:46:53.680Z,68.95
2022-12-09T05:51:56.579Z,68.84
2022-12-09T05:57:01.316Z,68.87
2022-12-09T06:02:09.732Z,68.78
2022-12-09T06:07:13.253Z,68.84
2022-12-09T06:12:17.646Z,68.95
2022-12-09T06:17:20.774Z,68.83
2022-12-09T06:22:23.700Z,68.92
2022-12-09T06:27:28.252Z,68.95
2022-12-09T06:32:31.659Z,68.82
2022-12-09T06:37:34.942Z,68.84
2022-12-09T06:42:39.566Z,68.95
2022-12-09T06:47:42.841Z,68.91
2022-12-09T06:52:46.069Z,68.98
2022-12-09T06:57:50.444Z,68.96
2022-12-09T07:02:54.506Z,68.96
2022-12-09T07:07:57.810Z,68.92
2022-12-09T07:13:02.419Z,68.98
2022-12-09T07:18:06.084Z,68.89
2022-12-09T07:23:10.178Z,69.03
2022-12-09T07:28:14.553Z,68.98
2022-12-09T07:33:17.388Z,68.98
2022-12-09T07:38:20.685Z,69.04
2022-12-09T07:43:25.361Z,68.92
2022-12-09T07:48:28.387Z,69.07
2022-12-09T07:53:32.136Z,68.98
2022-12-09T07:58:37.114Z,69.08
2022-12-09T08:03:42.517Z,68.97
2022-12-09T08:08:46.483Z,68.57
2022-12-09T08:13:51.058Z,68.26
2022-12-09T08:18:55.460Z,67.94
2022-12-09T08:24:00.851Z,67.50
2022-12-09T08:29:10.504Z,67.23
2022-12-09T08:34:14.390Z,49.17
2022-12-09T08:39:17.535Z,48.15
2022-12-09T08:44:22.828Z,49.93
2022-12-09T08:49:25.906Z,52.88
2022-12-09T08:54:29.490Z,53.59
2022-12-09T08:59:34.179Z,54.19
2022-12-09T09:04:37.704Z,54.67
2022-12-09T09:09:42.025Z,55.27
2022-12-09T09:14:46.397Z,55.43
2022-12-09T09:19:49.514Z,55.79
2022-12-09T09:24:54.249Z,56.02
2022-12-09T09:29:58.825Z,56.26
2022-12-09T09:35:01.979Z,56.70
2022-12-09T09:40:07.104Z,56.90
2022-12-09T09:45:18.540Z,57.15
2022-12-09T09:50:30.982Z,57.27
2022-12-09T09:55:41.519Z,57.55
2022-12-09T10:01:05.289Z,57.89
2022-12-09T10:06:21.211Z,58.09
2022-12-09T10:11:30.633Z,58.17
2022-12-09T10:16:44.032Z,58.46
2022-12-09T10:21:50.687Z,58.79
2022-12-09T10:27:15.453Z,59.08
2022-12-09T10:32:22.384Z,59.35
2022-12-09T10:37:31.480Z,59.64
2022-12-09T10:43:00.037Z,59.91
2022-12-09T10:48:04.916Z,60.06
2022-12-09T10:53:15.268Z,60.20
2022-12-09T10:58:21.244Z,60.17
2022-12-09T11:03:31.572Z,60.18
2022-12-09T11:08:35.326Z,60.35
2022-12-09T11:13:43.469Z,60.58
2022-12-09T11:18:49.165Z,61.11
2022-12-09T11:24:02.528Z,61.45
2022-12-09T11:29:14.937Z,61.76
2022-12-09T11:34:26.197Z,62.23
2022-12-09T11:39:31.907Z,62.86
2022-12-09T11:44:36.081Z,63.48
2022-12-09T11:49:51.350Z,63.66
2022-12-09T11:55:11.867Z,64.07
2022-12-09T12:00:20.757Z,64.21
2022-12-09T12:05:28.805Z,64.28
2022-12-09T12:10:37.611Z,64.38
2022-12-09T12:15:49.338Z,64.49
2022-12-09T12:21:30.468Z,64.32
2022-12-09T12:26:42.194Z,64.36
2022-12-09T12:32:03.334Z,63.96
2022-12-09T12:37:21.133Z,63.48
2022-12-09T12:42:38.092Z,63.06
2022-12-09T12:47:47.177Z,62.86
2022-12-09T12:52:57.848Z,62.40
2022-12-09T12:58:09.966Z,62.42
2022-12-09T13:03:23.197Z,62.12
2022-12-09T13:08:32.271Z,61.93
2022-12-09T13:13:44.366Z,61.84
2022-12-09T13:18:49.143Z,61.64
2022-12-09T13:24:01.618Z,61.81
2022-12-09T13:29:12.980Z,61.63
2022-12-09T13:34:26.843Z,61.19
2022-12-09T13:39:55.499Z,61.16
2022-12-09T13:45:07.288Z,61.23
2022-12-09T13:50:25.625Z,61.18
2022-12-09T13:55:33.663Z,61.03
2022-12-09T14:00:39.344Z,61.15
2022-12-09T14:05:42.469Z,61.15
2022-12-09T14:10:47.795Z,60.70
2022-12-09T14:16:34.280Z,60.51
2022-12-09T14:21:37.157Z,60.37
2022-12-09T14:26:44.645Z,58.72
2022-12-09T14:32:01.149Z,58.64
2022-12-09T14:37:36.321Z,59.01
2022-12-09T14:42:47.521Z,59.28
2022-12-09T14:47:52.223Z,59.81
2022-12-09T14:52:58.735Z,59.79
2022-12-09T14:58:03.098Z,59.34
2022-12-09T15:03:39.528Z,59.10
2022-12-09T15:08:42.562Z,59.16
2022-12-09T15:13:48.683Z,59.13
2022-12-09T15:18:55.247Z,59.13
2022-12-09T15:23:59.779Z,58.98
2022-12-09T15:34:23.212Z,59.70
2022-12-09T15:39:33.337Z,59.70
2022-12-09T15:44:42.005Z,59.66
2022-12-09T15:49:52.971Z,59.68
2022-12-09T15:54:57.268Z,59.34
2022-12-09T16:00:00.101Z,59.24
2022-12-09T16:05:06.766Z,58.99
2022-12-09T16:10:13.465Z,58.75
2022-12-09T16:15:49.795Z,58.34
2022-12-09T16:21:03.436Z,58.43
2022-12-09T16:26:07.741Z,58.32
2022-12-09T16:31:19.430Z,58.32
2022-12-09T16:36:26.196Z,58.25
2022-12-09T16:41:56.189Z,58.35
2022-12-09T16:47:16.235Z,58.42
2022-12-09T16:52:23.225Z,58.58
2022-12-09T16:57:25.986Z,58.80
2022-12-09T17:02:36.143Z,58.81
2022-12-09T17:07:39.188Z,58.65
2022-12-09T17:12:42.454Z,58.42
2022-12-09T17:17:48.909Z,58.35
2022-12-09T17:22:51.958Z,58.39
2022-12-09T17:27:55.291Z,58.38
2022-12-09T17:33:00.840Z,57.67
2022-12-09T17:38:03.656Z,57.76
2022-12-09T17:43:06.429Z,57.37
2022-12-09T17:48:11.648Z,56.74
2022-12-09T17:53:14.690Z,56.79
2022-12-09T17:58:17.705Z,56.13
2022-12-09T18:03:39.357Z,56.03
2022-12-09T18:08:44.839Z,56.00
2022-12-09T18:13:47.616Z,55.94
2022-12-09T18:18:52.372Z,56.15
2022-12-09T18:23:55.186Z,55.84
2022-12-09T18:28:59.036Z,56.13
2022-12-09T18:34:03.226Z,55.93
2022-12-09T18:39:06.517Z,55.83
2022-12-09T18:44:10.028Z,55.39
2022-12-09T18:49:16.192Z,55.68
2022-12-09T18:54:22.695Z,55.84
2022-12-09T18:59:26.044Z,56.23
2022-12-09T19:04:31.191Z,56.32
2022-12-09T19:09:36.315Z,56.63
2022-12-09T19:14:40.823Z,56.68
2022-12-09T19:19:47.197Z,56.98
2022-12-09T19:24:50.181Z,56.85
2022-12-09T19:29:52.921Z,57.05
2022-12-09T19:34:57.017Z,57.33
2022-12-09T19:40:00.291Z,57.18
2022-12-09T19:45:06.466Z,57.45
2022-12-09T19:50:12.466Z,57.65
2022-12-09T19:55:15.536Z,57.68
2022-12-09T20:00:18.508Z,57.31
2022-12-09T20:05:22.678Z,57.38
2022-12-09T20:10:25.451Z,57.24
2022-12-09T20:15:28.406Z,57.36
2022-12-09T20:20:34.128Z,57.69
2022-12-09T20:25:37.830Z,57.17
2022-12-09T20:30:40.598Z,57.40
2022-12-09T20:35:44.854Z,57.34
2022-12-09T20:40:47.826Z,57.44
2022-12-09T20:45:50.610Z,57.51
2022-12-09T20:50:54.760Z,56.56
2022-12-09T20:55:58.324Z,57.46
2022-12-09T21:01:06.801Z,57.42
2022-12-09T21:06:12.335Z,57.56
2022-12-09T21:11:17.963Z,57.71
2022-12-09T21:16:22.593Z,57.67
2022-12-09T21:21:29.593Z,57.69
2022-12-09T21:26:32.496Z,57.83
2022-12-09T21:31:37.839Z,57.75
2022-12-09T21:36:44.427Z,57.76
2022-12-09T21:41:47.310Z,56.31
2022-12-09T21:46:50.126Z,57.53
2022-12-09T21:51:54.437Z,57.92
2022-12-09T21:56:57.232Z,57.79
2022-12-09T22:02:00.171Z,57.97
2022-12-09T22:07:04.325Z,57.97
2022-12-09T22:12:07.483Z,58.11
2022-12-09T22:17:10.220Z,58.53
2022-12-09T22:22:14.289Z,58.49
2022-12-09T22:27:17.078Z,58.65
2022-12-09T22:32:19.841Z,58.53
2022-12-09T22:37:43.147Z,58.51
2022-12-09T22:42:47.203Z,58.86
2022-12-09T22:47:49.961Z,58.86
2022-12-09T22:52:54.072Z,59.15
2022-12-09T22:57:56.873Z,59.12
2022-12-09T23:02:59.761Z,59.40
2022-12-09T23:08:04.472Z,59.47
2022-12-09T23:13:07.929Z,59.41
2022-12-09T23:18:10.687Z,59.71
2022-12-09T23:23:15.092Z,60.17
2022-12-09T23:28:17.903Z,59.86
2022-12-09T23:33:21.145Z,60.04
2022-12-09T23:38:25.209Z,60.10
2022-12-09T23:43:30.884Z,59.98
2022-12-09T23:48:33.704Z,60.25
2022-12-09T23:53:38.206Z,59.99
2022-12-09T23:58:41.165Z,60.17
